createdAt,value
2018-09-17T00:02:36.763Z,92.69
2018-09-17T00:02:49.071Z,92.79
2018-09-17T00:03:49.088Z,92.88
2018-09-17T00:04:49.062Z,92.79
2018-09-17T00:05:49.031Z,92.5
2018-09-17T00:06:49.045Z,92.3
2018-09-17T00:07:49.057Z,92.11
2018-09-17T00:08:49.046Z,92.3
2018-09-17T00:09:49.159Z,92.4
2018-09-17T00:10:49.073Z,92.3
2018-09-17T00:11:49.072Z,92.79
2018-09-17T00:12:49.059Z,92.79
2018-09-17T00:13:49.054Z,92.3
2018-09-17T00:14:49.054Z,92.5
2018-09-17T00:15:49.070Z,92.69
2018-09-17T00:16:49.117Z,92.79
2018-09-17T00:17:49.085Z,92.79
2018-09-17T00:18:49.095Z,92.69
2018-09-17T00:19:49.059Z,92.79
2018-09-17T00:20:49.126Z,92.5
2018-09-17T00:21:49.071Z,92.88
2018-09-17T00:22:49.077Z,93.07
2018-09-17T00:23:49.047Z,92.69
2018-09-17T00:24:49.089Z,92.59
2018-09-17T00:25:49.122Z,92.59
2018-09-17T00:26:49.070Z,92.79
2018-09-17T00:27:49.116Z,93.07
2018-09-17T00:28:49.110Z,93.45
2018-09-17T00:29:49.085Z,93.31
2018-09-17T00:30:49.096Z,93.65
2018-09-17T00:31:49.101Z,93.6
2018-09-17T00:32:49.095Z,93.6
2018-09-17T00:44:35.410Z,94.07
2018-09-17T00:44:48.024Z,94.55
2018-09-17T00:45:47.963Z,94.93
2018-09-17T00:46:47.965Z,94.27
2018-09-17T00:47:47.976Z,94.17
2018-09-17T00:48:47.956Z,94.65
2018-09-17T00:49:47.955Z,95.22
2018-09-17T00:50:47.992Z,95.12
2018-09-17T00:51:47.968Z,94.84
2018-09-17T00:52:47.985Z,94.46
2018-09-17T00:53:48.010Z,94.65
2018-09-17T00:54:47.990Z,94.46
2018-09-17T00:55:47.989Z,94.65
2018-09-17T00:56:48.002Z,94.93
2018-09-17T00:57:48.113Z,94.84
2018-09-17T00:58:47.973Z,94.74
2018-09-17T00:59:48.030Z,95.03
2018-09-17T01:00:47.983Z,94.93
2018-09-17T01:01:48.004Z,95.03
2018-09-17T01:02:48.160Z,95.32
2018-09-17T01:03:48.017Z,95.51
2018-09-17T01:04:48.060Z,95.41
2018-09-17T01:05:48.034Z,95.51
2018-09-17T01:06:48.005Z,95.22
2018-09-17T01:07:47.981Z,94.84
2018-09-17T01:08:48.100Z,94.93
2018-09-17T01:09:48.010Z,94.74
2018-09-17T01:10:48.024Z,94.84
2018-09-17T01:11:48.068Z,95.41
2018-09-17T01:12:48.065Z,95.12
2018-09-17T01:13:48.014Z,95.03
2018-09-17T01:14:48.043Z,94.84
2018-09-17T01:15:48.154Z,95.12
2018-09-17T01:16:48.187Z,95.12
2018-09-17T01:17:48.210Z,95.22
2018-09-17T01:18:48.243Z,95.94
2018-09-17T01:19:48.206Z,95.56
2018-09-17T01:20:48.046Z,95.56
2018-09-17T01:21:48.056Z,96.03
2018-09-17T01:22:48.045Z,95.56
2018-09-17T01:23:48.050Z,95.17
2018-09-17T01:24:48.053Z,95.36
2018-09-17T01:25:48.059Z,95.12
2018-09-17T01:26:48.019Z,95.7
2018-09-17T01:27:48.075Z,95.65
2018-09-17T01:28:48.045Z,95.32
2018-09-17T01:29:48.017Z,95.32
2018-09-17T01:30:48.036Z,95.51
2018-09-17T01:31:48.066Z,95.79
2018-09-17T01:32:48.074Z,95.61
2018-09-17T01:33:48.046Z,95.79
2018-09-17T01:34:48.074Z,95.79
2018-09-17T01:35:48.058Z,95.79
2018-09-17T01:36:48.064Z,95.61
2018-09-17T01:37:48.043Z,95.79
2018-09-17T01:38:48.066Z,95.98
2018-09-17T01:39:48.077Z,95.79
2018-09-17T01:55:01.110Z,96.27
2018-09-17T01:55:13.435Z,96.32
2018-09-17T01:56:13.398Z,96.84
2018-09-17T01:57:13.373Z,96.61
2018-09-17T01:58:13.431Z,96.61
2018-09-17T01:59:13.435Z,96.46
2018-09-17T02:00:13.423Z,96.56
2018-09-17T02:01:13.439Z,96.46
2018-09-17T02:02:13.381Z,96.66
2018-09-17T02:03:13.451Z,96.66
2018-09-17T02:04:13.397Z,96.13
2018-09-17T02:05:13.432Z,96.66
2018-09-17T02:06:13.406Z,96.27
2018-09-17T02:07:13.452Z,96.37
2018-09-17T02:08:13.537Z,96.13
2018-09-17T02:09:13.507Z,96.22
2018-09-17T02:10:13.455Z,96.51
2018-09-17T02:11:13.427Z,96.51
2018-09-17T02:12:13.466Z,96.42
2018-09-17T02:13:13.489Z,95.84
2018-09-17T02:14:13.463Z,96.22
2018-09-17T02:15:13.459Z,96.32
2018-09-17T02:16:13.445Z,96.22
2018-09-17T02:17:13.415Z,96.03
2018-09-17T02:18:13.424Z,96.32
2018-09-17T02:19:13.428Z,96.42
2018-09-17T02:20:13.474Z,96.98
2018-09-17T02:21:13.444Z,96.98
2018-09-17T02:22:13.466Z,96.8
2018-09-17T02:23:13.420Z,97.27
2018-09-17T02:24:13.462Z,96.89
2018-09-17T02:25:13.463Z,96.89
2018-09-17T02:26:13.462Z,96.8
2018-09-17T02:27:13.458Z,96.42
2018-09-17T02:28:13.443Z,96.61
2018-09-17T02:29:13.484Z,96.98
2018-09-17T02:30:13.486Z,97.08
2018-09-17T02:31:13.470Z,97.37
2018-09-17T02:32:13.499Z,96.98
2018-09-17T02:33:13.511Z,96.98
2018-09-17T02:34:13.460Z,96.75
2018-09-17T02:35:13.486Z,96.7
2018-09-17T02:36:13.458Z,96.56
2018-09-17T02:37:13.506Z,96.46
2018-09-17T02:38:13.647Z,96.17
2018-09-17T02:47:01.451Z,97.99
2018-09-17T02:48:01.421Z,97.94
2018-09-17T02:49:01.434Z,97.66
2018-09-17T02:50:01.465Z,96.89
2018-09-17T02:51:01.378Z,96.98
2018-09-17T02:52:01.450Z,97.27
2018-09-17T02:53:01.421Z,96.8
2018-09-17T02:54:01.461Z,97.56
2018-09-17T02:55:01.459Z,97.85
2018-09-17T02:56:01.380Z,97.75
2018-09-17T02:57:01.460Z,97.75
2018-09-17T02:58:01.452Z,97.85
2018-09-17T02:59:01.456Z,98.03
2018-09-17T03:00:01.427Z,97.66
2018-09-17T03:01:01.402Z,98.13
2018-09-17T03:02:01.424Z,97.94
2018-09-17T03:03:01.422Z,98.9
2018-09-17T03:04:01.453Z,98.9
2018-09-17T03:05:01.423Z,98.99
2018-09-17T03:06:01.405Z,98.03
2018-09-17T03:07:01.416Z,98.03
2018-09-17T03:08:01.444Z,98.32
2018-09-17T03:09:01.505Z,98.13
2018-09-17T03:10:01.562Z,98.13
2018-09-17T03:11:01.592Z,98.13
2018-09-17T03:12:01.481Z,97.75
2018-09-17T03:13:01.552Z,97.85
2018-09-17T03:14:01.601Z,97.56
2018-09-17T03:15:01.810Z,98.18
2018-09-17T03:16:01.460Z,98.32
2018-09-17T03:17:01.467Z,98.03
2018-09-17T03:18:01.423Z,98.13
2018-09-17T03:19:01.468Z,98.71
2018-09-17T03:20:01.430Z,98.61
2018-09-17T03:21:01.648Z,98.71
2018-09-17T03:22:01.558Z,98.99
2018-09-17T03:23:01.518Z,98.8
2018-09-17T03:24:01.464Z,99.76
2018-09-17T03:25:01.994Z,99.76
2018-09-17T03:26:01.495Z,99.47
2018-09-17T03:27:01.653Z,99.76
2018-09-17T03:28:01.488Z,99.28
2018-09-17T03:29:01.523Z,99.08
2018-09-17T03:30:01.631Z,99.08
2018-09-17T03:31:01.477Z,98.71
2018-09-17T03:32:01.615Z,99.08
2018-09-17T03:33:01.455Z,98.8
2018-09-17T03:34:01.807Z,99.08
2018-09-17T03:35:01.467Z,98.8
2018-09-17T03:36:01.509Z,98.8
2018-09-17T03:37:01.645Z,98.99
2018-09-17T03:38:01.475Z,99.08
2018-09-17T03:39:01.683Z,98.8
2018-09-17T03:40:01.500Z,98.71
2018-09-17T03:41:01.625Z,98.8
2018-09-17T03:42:05.298Z,98.99
2018-09-17T03:43:01.466Z,98.71
2018-09-17T03:44:01.436Z,98.9
2018-09-17T03:45:01.545Z,98.52
2018-09-17T03:46:01.484Z,98.9
2018-09-17T03:47:01.512Z,98.42
2018-09-17T03:48:01.522Z,98.71
2018-09-17T03:49:01.510Z,98.8
2018-09-17T03:50:01.512Z,98.71
2018-09-17T03:51:01.624Z,98.61
2018-09-17T03:52:01.535Z,99.32
2018-09-17T03:53:01.660Z,99.04
2018-09-17T03:54:01.640Z,98.61
2018-09-17T03:55:01.515Z,98.61
2018-09-17T03:56:01.628Z,99.08
2018-09-17T03:57:01.577Z,98.56
2018-09-17T03:58:01.741Z,99.04
2018-09-17T03:59:01.709Z,99.04
2018-09-17T04:00:01.666Z,98.8
2018-09-17T04:01:01.669Z,99.13
2018-09-17T04:02:01.599Z,98.99
2018-09-17T04:03:01.538Z,98.94
2018-09-17T04:04:01.548Z,99.28
2018-09-17T04:05:18.377Z,98.94
2018-09-17T04:06:18.345Z,98.99
2018-09-17T04:07:18.428Z,99.23
2018-09-17T04:08:18.411Z,98.94
2018-09-17T04:09:18.396Z,98.94
2018-09-17T04:10:18.409Z,98.94
2018-09-17T04:11:18.420Z,98.94
2018-09-17T04:12:18.403Z,99.71
2018-09-17T04:13:18.395Z,99.52
2018-09-17T04:14:18.428Z,98.9
2018-09-17T04:15:18.389Z,98.8
2018-09-17T04:16:18.414Z,98.75
2018-09-17T04:17:18.401Z,98.94
2018-09-17T04:18:18.429Z,98.56
2018-09-17T04:19:18.378Z,99.04
2018-09-17T04:20:18.399Z,98.99
2018-09-17T04:21:18.444Z,99.32
2018-09-17T04:22:18.398Z,99.66
2018-09-17T04:23:18.437Z,99.08
2018-09-17T04:24:18.401Z,99.76
2018-09-17T04:25:18.417Z,99.99
2018-09-17T04:26:18.416Z,99.99
2018-09-17T04:27:18.637Z,99.85
2018-09-17T04:28:18.396Z,99.66
2018-09-17T04:29:18.470Z,99.32
2018-09-17T04:30:18.431Z,99.61
2018-09-17T04:31:18.382Z,99.8
2018-09-17T04:32:18.580Z,99.42
2018-09-17T04:33:18.473Z,99.61
2018-09-17T04:34:18.394Z,99.99
2018-09-17T04:35:18.467Z,99.9
2018-09-17T04:36:18.433Z,99.99
2018-09-17T04:45:56.005Z,99.99
2018-09-17T04:46:08.276Z,99.42
2018-09-17T04:47:08.275Z,99.42
2018-09-17T04:48:08.260Z,99.52
2018-09-17T04:49:08.257Z,99.42
2018-09-17T04:50:08.295Z,99.61
2018-09-17T04:51:08.291Z,99.23
2018-09-17T04:52:08.274Z,99.13
2018-09-17T04:53:08.287Z,99.71
2018-09-17T04:54:08.291Z,99.13
2018-09-17T04:55:08.353Z,99.71
2018-09-17T04:56:08.315Z,99.71
2018-09-17T04:57:08.317Z,99.32
2018-09-17T04:58:08.319Z,99.8
2018-09-17T04:59:08.905Z,99.42
2018-09-17T05:00:10.705Z,99.52
2018-09-17T05:01:08.466Z,99.71
2018-09-17T05:02:08.350Z,99.61
2018-09-17T05:03:08.489Z,99.71
2018-09-17T05:04:08.490Z,99.61
2018-09-17T05:05:08.366Z,99.99
2018-09-17T05:06:08.381Z,99.99
2018-09-17T05:07:08.492Z,99.99
2018-09-17T05:08:08.453Z,99.61
2018-09-17T05:09:08.259Z,99.61
2018-09-17T05:10:08.497Z,99.99
2018-09-17T05:11:08.305Z,99.99
2018-09-17T05:12:08.786Z,99.71
2018-09-17T05:13:08.503Z,99.52
2018-09-17T05:14:08.357Z,99.71
2018-09-17T05:15:08.369Z,99.99
2018-09-17T05:16:08.309Z,99.9
2018-09-17T05:17:08.292Z,99.52
2018-09-17T05:18:08.283Z,99.42
2018-09-17T05:19:08.459Z,99.61
2018-09-17T05:20:08.371Z,99.8
2018-09-17T05:21:08.339Z,99.9
2018-09-17T05:22:08.345Z,99.99
2018-09-17T05:23:08.348Z,99.99
2018-09-17T05:24:08.324Z,99.99
2018-09-17T05:25:08.390Z,99.99
2018-09-17T05:26:08.321Z,99.99
2018-09-17T05:27:08.345Z,99.99
2018-09-17T05:28:08.542Z,99.99
2018-09-17T05:29:08.359Z,99.99
2018-09-17T05:30:08.384Z,99.9
2018-09-17T05:31:08.336Z,99.8
2018-09-17T05:32:08.374Z,99.99
2018-09-17T05:33:08.360Z,99.99
2018-09-17T05:34:08.434Z,99.9
2018-09-17T05:35:08.707Z,99.99
2018-09-17T05:36:08.391Z,99.9
2018-09-17T05:37:08.554Z,99.99
2018-09-17T05:38:08.451Z,99.99
2018-09-17T05:39:08.394Z,99.8
2018-09-17T05:40:08.512Z,99.99
2018-09-17T05:41:08.365Z,99.99
2018-09-17T05:42:08.369Z,99.99
2018-09-17T05:43:08.376Z,99.99
2018-09-17T05:44:08.365Z,99.99
2018-09-17T05:45:08.449Z,99.99
2018-09-17T05:46:08.378Z,99.99
2018-09-17T05:47:08.418Z,99.9
2018-09-17T05:48:08.377Z,99.9
2018-09-17T05:49:08.342Z,99.71
2018-09-17T05:50:08.460Z,99.52
2018-09-17T05:51:08.376Z,99.57
2018-09-17T05:52:08.416Z,99.66
2018-09-17T05:53:08.375Z,99.57
2018-09-17T05:54:08.536Z,99.99
2018-09-17T05:55:08.484Z,99.76
2018-09-17T05:56:08.383Z,99.76
2018-09-17T05:57:08.404Z,99.08
2018-09-17T05:58:08.396Z,99.57
2018-09-17T05:59:08.408Z,99.47
2018-09-17T06:00:08.523Z,99.76
2018-09-17T06:01:08.465Z,99.28
2018-09-17T06:02:08.416Z,99.57
2018-09-17T06:03:08.441Z,99.66
2018-09-17T06:04:08.449Z,99.43
2018-09-17T06:05:08.619Z,99.43
2018-09-17T06:06:08.446Z,99.71
2018-09-17T06:07:08.594Z,99.23
2018-09-17T06:08:08.396Z,99.14
2018-09-17T06:09:08.430Z,99.23
2018-09-17T06:10:08.400Z,98.85
2018-09-17T06:11:08.516Z,98.37
2018-09-17T06:12:08.409Z,98.75
2018-09-17T06:13:08.407Z,98.18
2018-09-17T06:14:08.414Z,98.04
2018-09-17T06:15:08.419Z,97.66
2018-09-17T06:16:08.424Z,97.37
2018-09-17T06:17:09.660Z,96.61
2018-09-17T06:18:08.447Z,96.03
2018-09-17T06:19:08.499Z,95.7
2018-09-17T06:20:08.465Z,95.22
2018-09-17T06:21:08.444Z,94.93
2018-09-17T06:22:08.443Z,94.5
2018-09-17T06:23:08.425Z,94.02
2018-09-17T06:24:08.589Z,93.64
2018-09-17T06:25:08.465Z,92.92
2018-09-17T06:26:08.442Z,91.97
2018-09-17T06:27:08.394Z,91.68
2018-09-17T06:28:08.456Z,90.91
2018-09-17T06:29:08.425Z,91.15
2018-09-17T06:30:08.543Z,90.96
2018-09-17T06:31:08.417Z,90.86
2018-09-17T06:32:08.511Z,89.9
2018-09-17T06:33:08.431Z,90.96
2018-09-17T06:34:08.432Z,90.33
2018-09-17T06:35:08.458Z,90.05
2018-09-17T06:36:08.465Z,88.61
2018-09-17T06:37:08.447Z,88.61
2018-09-17T06:38:08.472Z,88.37
2018-09-17T06:39:08.462Z,87.6
2018-09-17T06:40:08.743Z,87.02
2018-09-17T06:41:08.439Z,86.68
2018-09-17T06:42:08.483Z,86.01
2018-09-17T06:43:08.460Z,86.3
2018-09-17T06:44:08.466Z,85.48
2018-09-17T06:45:08.468Z,86.05
2018-09-17T06:46:08.449Z,85
2018-09-17T06:47:08.512Z,85.28
2018-09-17T06:48:08.487Z,85.42
2018-09-17T06:49:08.506Z,84.37
2018-09-17T06:50:08.522Z,84.66
2018-09-17T06:51:08.476Z,84.08
2018-09-17T06:52:08.460Z,84.6
2018-09-17T06:53:08.480Z,84.7
2018-09-17T06:54:08.463Z,83.93
2018-09-17T06:55:08.467Z,82.87
2018-09-17T06:56:08.507Z,82.59
2018-09-17T06:57:08.468Z,82.73
2018-09-17T06:58:08.487Z,82.63
2018-09-17T06:59:08.495Z,82.63
2018-09-17T07:00:08.515Z,81.76
2018-09-17T07:01:08.517Z,81.71
2018-09-17T07:07:48.586Z,80.65
2018-09-17T07:08:48.683Z,79.53
2018-09-17T07:09:48.552Z,79.73
2018-09-17T07:10:48.504Z,79.48
2018-09-17T07:11:48.673Z,80.21
2018-09-17T07:12:48.515Z,80.25
2018-09-17T07:13:48.515Z,79.38
2018-09-17T07:14:48.527Z,79.86
2018-09-17T07:15:48.529Z,79.13
2018-09-17T07:16:48.698Z,79.43
2018-09-17T07:17:48.538Z,79.71
2018-09-17T07:18:48.693Z,78.75
2018-09-17T07:19:48.596Z,78.65
2018-09-17T07:20:48.605Z,78.69
2018-09-17T07:21:48.731Z,78.59
2018-09-17T07:22:48.532Z,78.79
2018-09-17T07:23:48.652Z,79.61
2018-09-17T07:24:48.510Z,78.65
2018-09-17T07:25:48.678Z,78.79
2018-09-17T07:26:48.542Z,78.88
2018-09-17T07:27:48.533Z,78.06
2018-09-17T07:28:48.716Z,78.44
2018-09-17T07:29:48.528Z,78.06
2018-09-17T07:30:48.699Z,78.59
2018-09-17T07:31:48.567Z,78.92
2018-09-17T07:32:48.586Z,78.79
2018-09-17T07:33:48.544Z,78.34
2018-09-17T07:34:48.565Z,77.76
2018-09-17T07:35:48.696Z,77.76
2018-09-17T07:36:48.534Z,77.67
2018-09-17T07:37:48.697Z,77.51
2018-09-17T07:38:48.556Z,77.03
2018-09-17T07:39:48.629Z,77.61
2018-09-17T07:40:48.601Z,77.71
2018-09-17T07:41:48.577Z,76.78
2018-09-17T07:42:48.699Z,76.4
2018-09-17T07:43:48.687Z,76.2
2018-09-17T07:44:48.614Z,75.57
2018-09-17T07:45:48.559Z,75.62
2018-09-17T07:46:48.586Z,75.72
2018-09-17T07:47:48.765Z,75.37
2018-09-17T07:48:48.541Z,75.47
2018-09-17T07:49:48.690Z,75.57
2018-09-17T07:50:48.556Z,75.85
2018-09-17T07:51:48.564Z,75.47
2018-09-17T07:52:48.597Z,75.85
2018-09-17T07:53:48.581Z,75.67
2018-09-17T07:54:48.621Z,75.47
2018-09-17T07:55:48.598Z,75.47
2018-09-17T07:56:48.616Z,75.12
2018-09-17T07:57:48.623Z,75.12
2018-09-17T07:58:48.628Z,75.12
2018-09-17T07:59:48.601Z,75.79
2018-09-17T08:00:48.628Z,75.12
2018-09-17T08:01:48.563Z,74.38
2018-09-17T08:02:48.562Z,74.38
2018-09-17T08:03:48.597Z,74.19
2018-09-17T08:04:48.627Z,74.19
2018-09-17T08:05:48.663Z,73.74
2018-09-17T08:06:48.924Z,73.42
2018-09-17T08:07:48.575Z,73.61
2018-09-17T08:08:48.836Z,73.52
2018-09-17T08:09:49.717Z,73.9
2018-09-17T08:10:48.797Z,73.07
2018-09-17T08:11:49.324Z,73.16
2018-09-17T08:12:48.905Z,72.39
2018-09-17T08:13:49.000Z,72.39
2018-09-17T08:14:48.572Z,73.3
2018-09-17T08:15:49.207Z,72.72
2018-09-17T08:16:49.082Z,72.42
2018-09-17T08:17:48.732Z,72.08
2018-09-17T08:18:49.002Z,71.98
2018-09-17T08:19:48.704Z,71.2
2018-09-17T08:20:48.982Z,71.5
2018-09-17T08:21:49.178Z,71.3
2018-09-17T08:22:51.053Z,70.72
2018-09-17T08:23:49.396Z,71.14
2018-09-17T08:24:49.181Z,71.44
2018-09-17T08:25:49.408Z,71.53
2018-09-17T08:26:48.644Z,72.42
2018-09-17T08:27:48.759Z,72.81
2018-09-17T08:28:48.899Z,71.98
2018-09-17T08:29:48.776Z,71.69
2018-09-17T08:30:48.718Z,71.04
2018-09-17T08:31:48.673Z,71.24
2018-09-17T08:32:48.622Z,71.14
2018-09-17T08:33:48.635Z,71.44
2018-09-17T08:34:48.629Z,71.2
2018-09-17T08:35:48.651Z,71.5
2018-09-17T08:36:49.475Z,71.82
2018-09-17T08:37:48.713Z,70.95
2018-09-17T08:38:50.439Z,69.73
2018-09-17T08:39:49.194Z,69.37
2018-09-17T08:40:49.042Z,70.01
2018-09-17T08:41:48.673Z,70.5
2018-09-17T08:42:48.660Z,69.57
2018-09-17T08:43:48.905Z,68.99
2018-09-17T08:44:48.668Z,69.57
2018-09-17T08:45:48.682Z,69.37
2018-09-17T08:46:48.791Z,69.89
2018-09-17T08:47:49.200Z,69.73
2018-09-17T08:48:48.684Z,69.95
2018-09-17T08:49:48.739Z,69.41
2018-09-17T08:50:48.951Z,69.57
2018-09-17T08:51:48.685Z,69.76
2018-09-17T08:52:48.942Z,69.6
2018-09-17T08:53:49.716Z,69.54
2018-09-17T08:54:48.742Z,69.24
2018-09-17T08:55:48.871Z,68.96
2018-09-17T08:56:48.674Z,68.99
2018-09-17T08:57:50.939Z,68.96
2018-09-17T08:58:48.816Z,68.47
2018-09-17T08:59:49.068Z,68.21
2018-09-17T09:00:49.270Z,67.92
2018-09-17T09:01:48.719Z,67.18
2018-09-17T09:02:48.691Z,67.34
2018-09-17T09:03:48.715Z,66.5
2018-09-17T09:04:48.769Z,65.82
2018-09-17T09:05:48.715Z,66.6
2018-09-17T09:06:48.712Z,66.53
2018-09-17T09:07:48.684Z,65.79
2018-09-17T09:08:48.690Z,66.17
2018-09-17T09:09:48.699Z,65.4
2018-09-17T09:10:48.698Z,64.91
2018-09-17T09:11:48.697Z,64.53
2018-09-17T09:12:48.717Z,64.33
2018-09-17T09:13:48.696Z,64.56
2018-09-17T09:14:48.721Z,64.33
2018-09-17T09:15:48.760Z,63.94
2018-09-17T09:16:48.835Z,64.46
2018-09-17T09:17:48.716Z,64.07
2018-09-17T09:18:48.906Z,63.49
2018-09-17T09:19:48.726Z,63.71
2018-09-17T09:20:48.737Z,63.23
2018-09-17T09:21:48.730Z,63.42
2018-09-17T09:22:48.733Z,63.49
2018-09-17T09:23:48.728Z,63.39
2018-09-17T09:24:48.880Z,63.42
2018-09-17T09:25:48.735Z,62.74
2018-09-17T09:26:48.762Z,63.03
2018-09-17T09:27:48.738Z,63.13
2018-09-17T09:28:48.708Z,62.81
2018-09-17T09:29:48.766Z,63.23
2018-09-17T09:30:48.798Z,63.75
2018-09-17T09:31:48.735Z,63.26
2018-09-17T09:32:48.766Z,63.45
2018-09-17T09:33:48.804Z,63.45
2018-09-17T09:34:48.732Z,63.62
2018-09-17T09:37:56.007Z,62.77
2018-09-17T09:38:09.232Z,62.57
2018-09-17T09:39:08.944Z,62.87
2018-09-17T09:40:08.971Z,62.67
2018-09-17T09:41:08.966Z,62.48
2018-09-17T09:42:08.968Z,61.41
2018-09-17T09:43:08.981Z,61.9
2018-09-17T09:44:08.986Z,61.63
2018-09-17T09:45:08.912Z,61.02
2018-09-17T09:46:09.785Z,60.72
2018-09-17T09:47:08.974Z,60.46
2018-09-17T09:48:08.949Z,60.46
2018-09-17T09:49:08.979Z,60.56
2018-09-17T09:50:08.964Z,60.46
2018-09-17T09:51:09.066Z,60.27
2018-09-17T09:52:08.999Z,59.39
2018-09-17T09:53:08.948Z,59.59
2018-09-17T09:54:08.981Z,59.13
2018-09-17T09:55:08.984Z,58.67
2018-09-17T09:56:08.967Z,58.94
2018-09-17T09:57:08.944Z,58.67
2018-09-17T09:58:08.975Z,59.06
2018-09-17T09:59:08.942Z,58.67
2018-09-17T10:00:08.996Z,59.03
2018-09-17T10:01:09.463Z,60.6
2018-09-17T10:02:08.996Z,60.67
2018-09-17T10:03:08.999Z,60.44
2018-09-17T10:04:08.985Z,61.32
2018-09-17T10:05:09.119Z,60.54
2018-09-17T10:06:09.024Z,60.9
2018-09-17T10:07:09.005Z,60.57
2018-09-17T10:08:08.999Z,61.44
2018-09-17T10:09:08.980Z,61.41
2018-09-17T10:10:09.058Z,61.38
2018-09-17T10:11:09.001Z,61.38
2018-09-17T10:12:09.045Z,61.8
2018-09-17T10:13:09.008Z,61.74
2018-09-17T10:14:09.035Z,61.84
2018-09-17T10:15:09.013Z,61.16
2018-09-17T10:16:08.985Z,61.25
2018-09-17T10:17:09.027Z,60.93
2018-09-17T10:18:08.996Z,60.44
2018-09-17T10:19:08.994Z,59.69
2018-09-17T10:20:09.001Z,59.66
2018-09-17T10:21:09.144Z,58.69
2018-09-17T10:22:09.002Z,58.51
2018-09-17T10:23:09.009Z,58.07
2018-09-17T10:24:09.186Z,58.1
2018-09-17T10:25:09.024Z,58.2
2018-09-17T10:26:09.007Z,58.65
2018-09-17T10:27:09.031Z,58.49
2018-09-17T10:28:09.025Z,58.46
2018-09-17T10:29:09.145Z,59.05
2018-09-17T10:30:09.203Z,58.75
2018-09-17T10:31:09.013Z,57.54
2018-09-17T10:32:09.016Z,58.03
2018-09-17T10:33:09.018Z,57.81
2018-09-17T10:34:09.028Z,57.15
2018-09-17T10:35:09.020Z,56.99
2018-09-17T10:36:09.038Z,56.72
2018-09-17T10:37:09.049Z,55.26
2018-09-17T10:38:09.053Z,55.07
2018-09-17T10:39:09.242Z,55.16
2018-09-17T10:40:09.053Z,55.55
2018-09-17T10:41:09.070Z,56.14
2018-09-17T10:42:09.134Z,55.09
2018-09-17T10:43:09.029Z,54.93
2018-09-17T10:44:09.046Z,54.7
2018-09-17T10:45:09.379Z,55.36
2018-09-17T10:46:09.077Z,55.13
2018-09-17T10:47:09.063Z,54.77
2018-09-17T10:48:09.193Z,54.68
2018-09-17T10:49:09.056Z,54.5
2018-09-17T10:50:09.232Z,54.41
2018-09-17T10:51:09.214Z,54.21
2018-09-17T10:52:09.089Z,54.11
2018-09-17T10:53:09.359Z,54.31
2018-09-17T10:54:09.078Z,53.8
2018-09-17T10:55:09.123Z,53.63
2018-09-17T10:56:09.074Z,53.75
2018-09-17T10:57:09.046Z,53.63
2018-09-17T10:58:09.152Z,53.92
2018-09-17T10:59:09.068Z,54.06
2018-09-17T11:00:09.236Z,54.36
2018-09-17T11:01:09.088Z,53.53
2018-09-17T11:02:09.120Z,53.34
2018-09-17T11:03:09.053Z,52.78
2018-09-17T11:04:09.125Z,52.51
2018-09-17T11:05:10.978Z,51.04
2018-09-17T11:06:09.260Z,51.73
2018-09-17T11:07:09.075Z,51.51
2018-09-17T11:08:09.190Z,52
2018-09-17T11:09:09.089Z,52.39
2018-09-17T11:10:09.134Z,52.56
2018-09-17T11:11:09.145Z,52.48
2018-09-17T11:16:25.282Z,52.61
2018-09-17T11:16:37.493Z,51.12
2018-09-17T11:17:37.570Z,51.51
2018-09-17T11:18:37.544Z,51.51
2018-09-17T11:19:37.521Z,51.12
2018-09-17T11:20:37.530Z,51.8
2018-09-17T11:21:37.514Z,51.48
2018-09-17T11:22:37.535Z,51.48
2018-09-17T11:23:37.522Z,51.48
2018-09-17T11:24:37.561Z,51.26
2018-09-17T11:25:37.527Z,51.19
2018-09-17T11:26:37.582Z,51.17
2018-09-17T11:27:37.519Z,51.19
2018-09-17T11:28:37.523Z,51.75
2018-09-17T11:29:37.562Z,51.31
2018-09-17T11:30:37.570Z,51.21
2018-09-17T11:31:37.602Z,50.36
2018-09-17T11:32:37.584Z,50.36
2018-09-17T11:33:37.582Z,50.16
2018-09-17T11:38:07.672Z,51.04
2018-09-17T11:39:07.616Z,51.31
2018-09-17T11:40:07.631Z,51.02
2018-09-17T11:41:07.724Z,50.82
2018-09-17T11:42:07.612Z,49.93
2018-09-17T11:43:07.689Z,50.14
2018-09-17T11:44:07.639Z,49.95
2018-09-17T11:45:07.628Z,50.16
2018-09-17T11:46:07.622Z,50
2018-09-17T11:47:07.673Z,49.41
2018-09-17T11:48:07.738Z,49.32
2018-09-17T11:49:07.626Z,49.88
2018-09-17T11:50:07.634Z,50.14
2018-09-17T11:56:46.854Z,49.85
2018-09-17T11:57:46.816Z,49.49
2018-09-17T11:58:46.850Z,50.07
2018-09-17T11:59:46.834Z,49.78
2018-09-17T12:00:46.821Z,49.39
2018-09-17T12:01:46.946Z,49.49
2018-09-17T12:02:46.849Z,49.9
2018-09-17T12:03:46.841Z,49.29
2018-09-17T12:04:46.832Z,49.68
2018-09-17T12:05:46.826Z,50.34
2018-09-17T12:06:46.857Z,50.26
2018-09-17T12:07:46.904Z,49.39
2018-09-17T12:08:46.859Z,49
2018-09-17T12:09:46.824Z,48.9
2018-09-17T12:10:46.860Z,48.97
2018-09-17T12:11:46.868Z,49.49
2018-09-17T12:12:46.849Z,49.98
2018-09-17T12:13:46.867Z,50.31
2018-09-17T12:14:46.890Z,49.37
2018-09-17T12:15:47.095Z,49.46
2018-09-17T12:16:46.831Z,49.56
2018-09-17T12:17:46.839Z,49.27
2018-09-17T12:18:46.864Z,49.05
2018-09-17T12:19:46.863Z,49
2018-09-17T12:20:47.027Z,49.27
2018-09-17T12:21:46.873Z,49.39
2018-09-17T12:22:46.902Z,49.88
2018-09-17T12:23:46.877Z,50.19
2018-09-17T12:24:46.889Z,50.19
2018-09-17T12:25:46.892Z,50.12
2018-09-17T12:26:46.871Z,49.66
2018-09-17T12:27:46.878Z,49.46
2018-09-17T12:28:46.897Z,49.58
2018-09-17T12:29:46.894Z,49.02
2018-09-17T12:30:46.894Z,49.02
2018-09-17T12:31:46.928Z,49.02
2018-09-17T12:32:46.894Z,49.02
2018-09-17T12:33:46.998Z,48.65
2018-09-17T12:34:46.933Z,48.19
2018-09-17T12:35:47.008Z,48.26
2018-09-17T12:36:46.899Z,48.41
2018-09-17T12:37:46.935Z,48.51
2018-09-17T12:38:46.872Z,48.54
2018-09-17T12:39:46.917Z,48.63
2018-09-17T12:40:46.920Z,48.65
2018-09-17T12:41:46.999Z,48.24
2018-09-17T12:42:46.902Z,48.41
2018-09-17T12:43:46.917Z,48.71
2018-09-17T12:44:46.932Z,48.41
2018-09-17T12:45:47.101Z,48.71
2018-09-17T12:46:46.937Z,48.9
2018-09-17T12:47:46.938Z,48.88
2018-09-17T12:48:46.985Z,48.8
2018-09-17T12:49:46.965Z,49.19
2018-09-17T12:50:46.913Z,48.97
2018-09-17T12:51:46.955Z,48.68
2018-09-17T12:52:46.962Z,48.49
2018-09-17T12:53:46.972Z,48.22
2018-09-17T12:54:46.992Z,48.41
2018-09-17T12:55:46.928Z,48.54
2018-09-17T12:56:46.930Z,48.73
2018-09-17T12:57:46.928Z,47.77
2018-09-17T12:58:47.099Z,48.14
2018-09-17T12:59:46.916Z,48.22
2018-09-17T13:00:46.917Z,48.24
2018-09-17T13:01:46.952Z,48.14
2018-09-17T13:02:46.948Z,48.73
2018-09-17T13:10:15.120Z,48.85
2018-09-17T13:10:27.413Z,48.73
2018-09-17T13:11:27.372Z,48.73
2018-09-17T13:12:27.397Z,48.63
2018-09-17T13:13:27.374Z,48.51
2018-09-17T13:14:27.389Z,48.51
2018-09-17T13:15:27.383Z,48.61
2018-09-17T13:16:27.398Z,48.54
2018-09-17T13:17:27.465Z,48.32
2018-09-17T13:18:27.378Z,48.24
2018-09-17T13:19:27.419Z,48.44
2018-09-17T13:20:27.484Z,48.05
2018-09-17T13:21:27.390Z,48.26
2018-09-17T13:22:27.410Z,47.48
2018-09-17T13:23:27.436Z,47.38
2018-09-17T13:24:27.423Z,47.89
2018-09-17T13:25:27.391Z,47.53
2018-09-17T13:26:27.398Z,47.77
2018-09-17T13:27:27.406Z,47.48
2018-09-17T13:28:27.476Z,47.77
2018-09-17T13:29:27.421Z,47.77
2018-09-17T13:30:27.448Z,47.97
2018-09-17T13:31:27.428Z,47.58
2018-09-17T13:32:27.465Z,47.48
2018-09-17T13:33:27.503Z,47.38
2018-09-17T13:34:27.444Z,47.77
2018-09-17T13:35:27.501Z,47.8
2018-09-17T13:36:27.428Z,47.8
2018-09-17T13:37:27.956Z,48.19
2018-09-17T13:38:27.561Z,47.67
2018-09-17T13:39:27.476Z,47.85
2018-09-17T13:40:27.433Z,47.48
2018-09-17T13:41:27.496Z,47.77
2018-09-17T13:42:27.489Z,47.58
2018-09-17T13:43:27.493Z,47.95
2018-09-17T13:44:27.620Z,48.32
2018-09-17T13:45:27.535Z,48.32
2018-09-17T13:46:27.532Z,48.41
2018-09-17T13:47:27.489Z,48.68
2018-09-17T13:48:27.462Z,48.05
2018-09-17T13:49:27.506Z,48.61
2018-09-17T13:50:27.508Z,48.41
2018-09-17T13:51:27.545Z,48.63
2018-09-17T13:52:27.512Z,48.16
2018-09-17T13:53:27.593Z,47.67
2018-09-17T13:54:27.512Z,48.26
2018-09-17T13:55:28.019Z,48.16
2018-09-17T13:56:27.459Z,48.46
2018-09-17T13:57:27.522Z,48.48
2018-09-17T13:58:27.501Z,48.68
2018-09-17T13:59:27.547Z,48.46
2018-09-17T14:06:55.251Z,48.97
2018-09-17T14:07:07.722Z,47.56